Time;durP1;ratioP1;P1;durP2;ratioP2;P2;SDS_P1;SDS_P2;PMS_P1;PMS_P2;Temp;Humidity;BMP_temperature;BMP_pressure;BME280_temperature;BME280_humidity;BME280_pressure;Samples;Min_cycle;Max_cycle;Signal;HPM_P1;HPM_P2
2022/05/26 00:01:04;;;;;;;5.03;1.73;;;;;;;18.66;35.09;98893.78;5152885;27;20529;-64
2022/05/26 00:03:42;;;;;;;3.83;1.58;;;;;;;18.66;35.31;98897.31;5153166;27;20034;-63
2022/05/26 00:06:10;;;;;;;2.83;1.70;;;;;;;18.64;35.23;98898.50;5152788;27;20042;-64
2022/05/26 00:08:37;;;;;;;4.10;2.28;;;;;;;18.64;35.30;98891.28;5152811;27;20023;-63
2022/05/26 00:11:11;;;;;;;4.93;1.60;;;;;;;18.64;35.05;98895.81;5151056;27;20031;-64
2022/05/26 00:13:39;;;;;;;5.93;1.80;;;;;;;18.61;34.96;98889.81;5152613;27;20026;-64
2022/05/26 00:16:05;;;;;;;5.55;2.58;;;;;;;18.60;34.94;98890.81;5152818;27;20034;-63
2022/05/26 00:18:31;;;;;;;3.17;1.77;;;;;;;18.60;34.94;98884.66;5150326;27;20201;-63
2022/05/26 00:20:57;;;;;;;9.90;1.65;;;;;;;18.59;34.80;98877.63;5152286;27;20142;-63
2022/05/26 00:23:22;;;;;;;3.22;1.55;;;;;;;18.56;35.15;98881.53;5152603;27;20489;-63
2022/05/26 00:25:48;;;;;;;3.63;1.60;;;;;;;18.55;35.06;98877.19;5152254;27;20033;-63
2022/05/26 00:28:13;;;;;;;3.38;1.52;;;;;;;18.54;35.13;98864.81;5151842;27;20034;-63
2022/05/26 00:30:39;;;;;;;3.45;1.77;;;;;;;18.54;34.89;98864.81;5152570;27;20027;-64
2022/05/26 00:33:07;;;;;;;2.78;1.50;;;;;;;18.52;34.96;98872.19;5152805;27;20107;-63
2022/05/26 00:35:35;;;;;;;3.67;1.75;;;;;;;18.52;34.75;98863.34;5151525;27;20035;-63
2022/05/26 00:38:12;;;;;;;2.55;1.60;;;;;;;18.53;34.88;98865.00;5151786;27;20485;-63
2022/05/26 00:40:38;;;;;;;3.22;1.85;;;;;;;18.48;34.79;98854.00;5148603;27;20022;-63
2022/05/26 00:43:05;;;;;;;5.30;1.70;;;;;;;18.49;34.76;98861.03;5153003;27;20038;-63
2022/05/26 00:45:39;;;;;;;2.42;1.63;;;;;;;18.47;34.94;98857.72;5151649;27;20031;-63
2022/05/26 00:48:09;;;;;;;5.05;2.15;;;;;;;18.47;34.84;98852.34;5152305;27;20113;-63
2022/05/26 00:50:45;;;;;;;2.60;1.63;;;;;;;18.45;34.92;98856.06;5152342;27;20469;-63
2022/05/26 00:53:18;;;;;;;3.38;1.77;;;;;;;18.46;34.80;98862.22;5151800;27;20431;-64
2022/05/26 00:55:54;;;;;;;2.83;1.85;;;;;;;18.43;34.85;98842.00;5152390;27;20026;-64
2022/05/26 00:58:24;;;;;;;4.20;1.65;;;;;;;18.42;34.65;98852.94;5152206;27;20038;-64
2022/05/26 01:00:50;;;;;;;5.93;2.35;;;;;;;18.41;34.82;98845.91;5151426;27;20066;-64
2022/05/26 01:03:45;;;;;;;2.78;1.50;;;;;;;18.40;34.95;98839.72;5153612;27;20167;-64
2022/05/26 01:06:24;;;;;;;3.38;1.60;;;;;;;18.38;34.78;98838.25;5156425;27;20037;-64
2022/05/26 01:09:04;;;;;;;2.30;1.60;;;;;;;18.38;34.89;98839.06;5155854;27;20405;-64
2022/05/26 01:11:33;;;;;;;3.20;1.65;;;;;;;18.34;34.79;98835.13;5155445;27;20558;-64
2022/05/26 01:14:05;;;;;;;2.80;1.30;;;;;;;18.37;34.90;98833.91;5155367;27;20073;-63
2022/05/26 01:16:37;;;;;;;1.92;1.10;;;;;;;18.37;34.82;98833.91;5154112;27;20038;-63
2022/05/26 01:19:24;;;;;;;3.03;1.23;;;;;;;18.35;34.71;98833.25;5154720;27;20746;-63
2022/05/26 01:22:12;;;;;;;2.35;1.58;;;;;;;18.33;34.94;98827.25;5155980;27;20523;-64
2022/05/26 01:25:05;;;;;;;2.38;1.50;;;;;;;18.34;34.82;98826.25;5155221;27;20481;-63
2022/05/26 01:27:45;;;;;;;4.40;1.40;;;;;;;18.34;35.04;98818.22;5155731;27;20095;-64
2022/05/26 01:30:32;;;;;;;1.50;1.25;;;;;;;18.35;34.91;98811.84;5155213;27;20117;-64
2022/05/26 01:33:16;;;;;;;3.47;1.48;;;;;;;18.34;34.86;98815.53;5156272;27;20110;-64
2022/05/26 01:36:09;;;;;;;1.67;1.20;;;;;;;18.34;35.05;98815.53;5155866;27;20031;-64
2022/05/26 01:38:44;;;;;;;1.92;1.40;;;;;;;18.34;35.09;98804.81;5152172;27;20117;-63
2022/05/26 01:41:09;;;;;;;2.30;1.13;;;;;;;18.34;34.97;98810.16;5155374;27;20078;-63
2022/05/26 01:43:56;;;;;;;2.97;1.55;;;;;;;18.34;34.99;98805.66;5154891;27;20434;-63
2022/05/26 01:46:30;;;;;;;2.55;1.48;;;;;;;18.30;34.97;98810.56;5155812;27;20031;-63
2022/05/26 01:49:22;;;;;;;2.03;1.40;;;;;;;18.32;34.89;98815.72;5156388;27;20034;-64
2022/05/26 01:52:06;;;;;;;4.03;1.50;;;;;;;18.33;35.02;98817.41;5156239;27;20079;-64
2022/05/26 01:55:13;;;;;;;2.65;1.52;;;;;;;18.33;34.80;98819.22;5156751;27;20037;-65
2022/05/26 01:57:54;;;;;;;2.88;1.65;;;;;;;18.27;34.89;98802.06;5090479;27;20042;-64
2022/05/26 02:00:21;;;;;;;3.70;1.27;;;;;;;18.30;34.72;98809.72;5156175;27;20070;-64
2022/05/26 02:03:17;;;;;;;2.28;1.50;;;;;;;18.32;34.65;98812.22;5156355;27;20027;-65
2022/05/26 02:05:49;;;;;;;3.83;2.13;;;;;;;18.32;34.86;98807.69;5138606;27;20505;-64
2022/05/26 02:08:21;;;;;;;2.22;1.40;;;;;;;18.34;34.89;98812.84;5135943;27;20054;-64
2022/05/26 02:10:56;;;;;;;4.55;1.58;;;;;;;18.34;34.90;98810.16;5155798;27;20030;-64
2022/05/26 02:13:30;;;;;;;3.50;1.48;;;;;;;18.35;34.83;98811.84;5155824;27;20030;-64
2022/05/26 02:16:27;;;;;;;2.58;1.88;;;;;;;18.36;34.86;98805.47;5149283;27;20043;-64
2022/05/26 02:18:59;;;;;;;3.35;1.75;;;;;;;18.36;34.82;98800.94;5155658;27;20058;-64
2022/05/26 02:21:54;;;;;;;4.05;1.30;;;;;;;18.37;34.77;98799.09;5156400;27;20030;-64
2022/05/26 02:24:26;;;;;;;2.72;1.50;;;;;;;18.38;35.03;98790.84;5109640;27;20099;-65
2022/05/26 02:26:51;;;;;;;2.92;1.83;;;;;;;18.39;34.76;98797.06;5156106;27;20035;-64
2022/05/26 02:32:04;;;;;;;2.60;1.65;;;;;;;18.42;35.14;98802.03;5156009;27;20391;-64
2022/05/26 02:34:31;;;;;;;4.45;1.60;;;;;;;18.43;34.92;98793.00;5154983;27;20034;-64
2022/05/26 02:36:59;;;;;;;3.33;1.60;;;;;;;18.48;35.03;98795.09;5155748;27;20059;-64
2022/05/26 02:39:25;;;;;;;2.55;1.58;;;;;;;18.51;35.10;98794.72;5154996;27;20045;-64
2022/05/26 02:41:54;;;;;;;3.33;1.58;;;;;;;18.56;35.17;98797.63;5155288;27;20030;-64
2022/05/26 02:44:22;;;;;;;3.25;1.83;;;;;;;18.57;35.52;98800.13;5153777;27;20038;-64
2022/05/26 02:46:58;;;;;;;2.80;1.55;;;;;;;18.59;35.44;98786.53;5153972;27;20030;-64
2022/05/26 02:50:01;;;;;;;2.30;1.65;;;;;;;18.63;35.60;98790.50;5154718;27;20041;-64
2022/05/26 02:53:05;;;;;;;4.45;1.88;;;;;;;18.65;35.41;98792.97;5150450;27;20043;-64
2022/05/26 02:55:58;;;;;;;4.15;1.88;;;;;;;18.68;35.62;98787.25;5137245;27;20070;-64
2022/05/26 02:58:38;;;;;;;4.05;1.65;;;;;;;18.70;35.55;98774.47;5155358;27;20035;-64
2022/05/26 03:01:12;;;;;;;2.95;1.73;;;;;;;18.71;35.50;98776.97;5153985;27;20034;-63
2022/05/26 03:04:04;;;;;;;2.92;1.60;;;;;;;18.72;35.29;98775.94;5154832;27;20195;-64
2022/05/26 03:06:39;;;;;;;2.53;1.65;;;;;;;18.75;35.37;98777.41;5134275;27;20033;-64
2022/05/26 03:09:07;;;;;;;3.67;1.58;;;;;;;18.75;35.48;98778.25;5144392;27;20117;-63
2022/05/26 03:11:47;;;;;;;4.60;2.00;;;;;;;18.79;35.39;98767.13;5154192;27;20046;-63
2022/05/26 03:14:14;;;;;;;2.67;1.70;;;;;;;18.77;35.30;98770.00;5155185;27;20054;-64
2022/05/26 03:16:41;;;;;;;3.55;1.52;;;;;;;18.80;35.26;98772.28;5154560;27;20428;-65
2022/05/26 03:19:07;;;;;;;3.55;1.83;;;;;;;18.80;35.29;98760.75;5145086;27;20046;-64
2022/05/26 03:21:33;;;;;;;4.10;1.65;;;;;;;18.81;35.36;98759.75;5138813;27;20042;-64
2022/05/26 03:23:59;;;;;;;4.28;2.03;;;;;;;18.83;35.34;98761.19;5153913;27;20053;-64
2022/05/26 03:26:24;;;;;;;3.28;2.10;;;;;;;18.85;35.26;98752.94;5151951;27;20401;-64
2022/05/26 03:28:50;;;;;;;3.72;1.88;;;;;;;18.87;35.47;98753.59;5154088;27;20031;-65
2022/05/26 03:31:15;;;;;;;4.43;2.40;;;;;;;18.89;35.53;98747.03;5155056;27;20030;-65
2022/05/26 03:41:53;;;;;;;3.85;2.03;;;;;;;19.05;35.39;98735.19;5154926;27;20049;-64
2022/05/26 03:44:20;;;;;;;2.42;1.65;;;;;;;19.08;35.26;98731.28;5154049;27;20035;-64
2022/05/26 03:46:47;;;;;;;2.72;1.75;;;;;;;19.09;35.33;98727.59;5154446;27;20039;-64
2022/05/26 03:49:13;;;;;;;4.35;2.00;;;;;;;19.10;35.55;98720.38;5153686;27;20038;-64
2022/05/26 03:51:39;;;;;;;3.05;1.58;;;;;;;19.11;35.48;98722.03;5154088;27;20482;-64
2022/05/26 03:54:05;;;;;;;3.10;1.70;;;;;;;19.10;35.39;98726.56;5147892;27;20043;-64
2022/05/26 03:56:30;;;;;;;5.80;2.25;;;;;;;19.12;35.82;98727.19;5150864;27;20039;-64
2022/05/26 03:58:56;;;;;;;4.45;2.20;;;;;;;19.15;35.55;98725.97;5154268;27;20043;-64
2022/05/26 04:01:22;;;;;;;2.08;1.73;;;;;;;19.18;35.40;98722.91;5144391;27;20071;-64
2022/05/26 04:03:48;;;;;;;3.00;2.35;;;;;;;19.21;35.44;98715.28;5146238;27;20041;-64
2022/05/26 04:06:15;;;;;;;3.00;1.55;;;;;;;19.25;35.58;98713.06;5153917;27;20038;-64
2022/05/26 04:08:40;;;;;;;4.22;2.10;;;;;;;19.28;35.57;98711.81;5153706;27;20446;-64
2022/05/26 04:11:06;;;;;;;6.00;1.80;;;;;;;19.29;35.72;98706.25;5153821;27;20031;-64
2022/05/26 04:13:32;;;;;;;2.22;1.70;;;;;;;19.30;35.80;98704.41;5149652;27;20072;-64
2022/05/26 04:15:58;;;;;;;7.05;4.03;;;;;;;19.33;35.77;98702.16;5138179;27;20039;-64
2022/05/26 04:18:23;;;;;;;3.55;2.22;;;;;;;19.35;35.71;98701.94;5153452;27;20059;-64
2022/05/26 04:20:49;;;;;;;3.70;2.10;;;;;;;19.40;35.48;98704.88;5154157;27;20087;-64
2022/05/26 04:23:14;;;;;;;2.90;1.75;;;;;;;19.45;35.30;98698.91;5153261;27;20039;-64
2022/05/26 04:25:40;;;;;;;4.28;1.90;;;;;;;19.51;35.17;98698.13;5147486;27;20440;-64
2022/05/26 04:28:06;;;;;;;2.78;2.17;;;;;;;19.58;34.75;98688.22;5133210;28;20038;-64
2022/05/26 04:30:31;;;;;;;5.90;2.97;;;;;;;19.66;34.78;98687.22;5148347;27;20129;-64
2022/05/26 04:32:57;;;;;;;3.35;2.10;;;;;;;19.74;34.86;98686.22;5154194;27;20038;-64
2022/05/26 04:35:22;;;;;;;4.20;2.17;;;;;;;19.94;34.85;98684.47;5154869;27;20034;-64
2022/05/26 04:37:48;;;;;;;4.50;2.00;;;;;;;20.16;34.65;98688.84;5158399;27;20041;-64
2022/05/26 04:40:14;;;;;;;5.93;2.25;;;;;;;20.42;34.32;98682.69;5157112;27;20083;-64
2022/05/26 04:42:40;;;;;;;6.32;2.58;;;;;;;20.57;33.92;98682.47;5157934;27;20037;-64
2022/05/26 04:45:08;;;;;;;4.95;2.63;;;;;;;20.78;34.03;98680.63;5156748;27;20066;-63
2022/05/26 04:47:34;;;;;;;3.25;2.20;;;;;;;20.89;33.63;98667.34;5150592;27;20023;-64
2022/05/26 04:50:02;;;;;;;3.67;2.28;;;;;;;21.03;33.59;98668.16;5148258;27;20049;-63
2022/05/26 04:52:28;;;;;;;2.90;1.88;;;;;;;21.12;33.72;98666.06;5157865;27;20038;-65
2022/05/26 04:54:54;;;;;;;4.57;2.40;;;;;;;21.29;33.91;98663.75;5157310;27;20038;-63
2022/05/26 04:57:22;;;;;;;7.72;3.97;;;;;;;21.46;33.74;98665.97;5138834;27;20034;-63
2022/05/26 04:59:48;;;;;;;5.03;2.35;;;;;;;21.61;33.76;98657.66;5157299;27;20146;-63
2022/05/26 05:02:16;;;;;;;4.68;2.40;;;;;;;21.75;33.83;98658.41;5136824;27;20122;-63
2022/05/26 05:04:44;;;;;;;3.35;1.80;;;;;;;21.84;33.48;98657.09;5152035;27;20157;-63
2022/05/26 05:07:10;;;;;;;2.97;1.90;;;;;;;21.91;33.49;98649.00;5157488;27;20125;-64
2022/05/26 05:09:37;;;;;;;4.95;2.67;;;;;;;21.97;33.34;98658.88;5157149;27;20041;-64
2022/05/26 05:12:04;;;;;;;3.33;1.63;;;;;;;22.01;33.29;98660.13;5157432;27;20050;-65
2022/05/26 05:14:36;;;;;;;5.00;2.08;;;;;;;22.09;33.45;98659.03;5155611;27;20038;-65
2022/05/26 05:17:03;;;;;;;3.28;1.77;;;;;;;22.15;33.53;98660.84;5156889;27;20050;-65
2022/05/26 05:19:29;;;;;;;5.05;2.05;;;;;;;22.20;33.50;98658.31;5157464;27;20039;-65
2022/05/26 05:22:01;;;;;;;4.75;1.85;;;;;;;22.26;33.56;98664.69;5157226;27;20040;-65
2022/05/26 05:24:34;;;;;;;3.13;1.90;;;;;;;22.29;33.38;98652.66;5152636;27;20492;-65
2022/05/26 05:27:09;;;;;;;2.08;1.40;;;;;;;22.30;33.41;98662.38;5157036;27;20038;-65
2022/05/26 05:29:37;;;;;;;3.25;1.75;;;;;;;22.31;33.35;98658.66;5136528;27;20042;-65
2022/05/26 05:32:12;;;;;;;3.95;1.80;;;;;;;22.31;33.49;98661.34;5142484;27;20039;-65
2022/05/26 05:34:49;;;;;;;4.03;2.33;;;;;;;22.32;33.43;98657.59;5156631;27;20445;-65
2022/05/26 05:37:15;;;;;;;2.45;1.52;;;;;;;22.31;33.43;98658.66;5138103;27;20474;-65
2022/05/26 05:39:41;;;;;;;3.70;1.52;;;;;;;22.30;33.55;98657.00;5155553;27;20055;-65
2022/05/26 05:42:07;;;;;;;2.13;1.40;;;;;;;22.30;33.67;98657.00;5149075;27;20043;-65
2022/05/26 05:44:33;;;;;;;2.30;1.25;;;;;;;22.28;33.49;98657.22;5154755;27;20115;-65
2022/05/26 05:46:58;;;;;;;4.97;1.40;;;;;;;22.27;33.64;98660.97;5151199;27;20083;-63
2022/05/26 05:49:27;;;;;;;2.97;1.40;;;;;;;22.27;33.62;98646.69;5156393;27;20534;-64
2022/05/26 05:51:53;;;;;;;1.90;1.23;;;;;;;22.26;33.62;98648.53;5145952;27;20085;-64
2022/05/26 05:54:20;;;;;;;1.90;1.20;;;;;;;22.24;33.69;98646.06;5149275;27;20035;-64
2022/05/26 05:56:46;;;;;;;2.38;1.25;;;;;;;22.23;33.68;98630.94;5156624;27;20041;-64
2022/05/26 05:59:12;;;;;;;2.53;1.33;;;;;;;22.23;33.49;98638.19;5155243;27;20031;-64
2022/05/26 06:01:37;;;;;;;3.47;1.33;;;;;;;22.22;33.62;98641.91;5156332;27;20378;-64
2022/05/26 06:04:03;;;;;;;5.28;1.60;;;;;;;22.21;33.84;98641.13;5155126;27;20114;-64
2022/05/26 06:06:36;;;;;;;3.08;1.52;;;;;;;22.20;33.71;98639.47;5136028;27;20064;-65
2022/05/26 06:09:01;;;;;;;2.90;1.60;;;;;;;22.19;33.66;98634.31;5144897;27;20121;-64
2022/05/26 06:11:27;;;;;;;3.00;1.63;;;;;;;22.17;33.75;98633.69;5155435;27;20117;-63
2022/05/26 06:13:54;;;;;;;5.65;1.70;;;;;;;22.14;33.71;98634.13;5156108;27;20091;-63
2022/05/26 06:16:19;;;;;;;2.83;1.20;;;;;;;22.11;33.83;98635.41;5156320;27;20041;-64
2022/05/26 06:18:46;;;;;;;2.92;1.55;;;;;;;22.06;33.77;98637.91;5155525;27;20046;-64
2022/05/26 06:21:11;;;;;;;2.40;1.65;;;;;;;22.01;33.81;98630.47;5155456;27;20079;-63
2022/05/26 06:23:36;;;;;;;3.78;1.80;;;;;;;21.96;33.98;98627.59;5155579;27;20030;-63
2022/05/26 06:26:02;;;;;;;3.20;1.38;;;;;;;21.92;34.03;98626.38;5153016;27;20054;-63
2022/05/26 06:31:12;;;;;;;4.07;1.73;;;;;;;21.83;34.13;98623.16;5155614;27;20409;-63
2022/05/26 06:39:06;;;;;;;2.85;1.40;;;;;;;21.75;34.47;98609.94;5156312;27;20038;-64
2022/05/26 06:44:17;;;;;;;7.85;1.48;;;;;;;21.71;34.31;98593.41;5155733;27;20079;-65
2022/05/26 06:46:43;;;;;;;2.95;1.38;;;;;;;21.70;34.49;98601.66;5155913;27;20069;-64
2022/05/26 06:49:08;;;;;;;2.70;1.23;;;;;;;21.69;34.59;98598.16;5155393;27;20039;-64
2022/05/26 06:51:36;;;;;;;3.38;1.27;;;;;;;21.67;34.37;98594.06;5155270;27;20397;-64
2022/05/26 06:54:03;;;;;;;2.08;1.20;;;;;;;21.65;34.28;98596.94;5154507;27;20035;-64
2022/05/26 06:56:29;;;;;;;3.03;1.67;;;;;;;21.66;34.43;98595.91;5155367;27;20067;-66
2022/05/26 06:58:55;;;;;;;4.53;1.40;;;;;;;21.64;34.58;98595.28;5154743;27;20126;-64
2022/05/26 07:01:20;;;;;;;3.38;1.63;;;;;;;21.64;34.37;98593.44;5140958;27;20402;-64
2022/05/26 07:03:46;;;;;;;4.03;1.27;;;;;;;21.63;34.45;98591.78;5134585;27;20038;-64
2022/05/26 07:06:19;;;;;;;2.33;1.58;;;;;;;21.64;34.21;98582.66;5134697;27;20031;-64
2022/05/26 07:08:46;;;;;;;4.45;1.70;;;;;;;21.63;34.28;98586.41;5134526;27;20585;-66
2022/05/26 07:11:12;;;;;;;1.92;1.30;;;;;;;21.64;34.21;98585.38;5142991;27;20114;-65
2022/05/26 07:13:38;;;;;;;2.60;1.33;;;;;;;21.63;34.16;98575.63;5154640;27;20027;-65
2022/05/26 07:16:05;;;;;;;3.55;1.33;;;;;;;21.65;34.14;98578.09;5140028;27;20038;-65
2022/05/26 07:18:31;;;;;;;2.33;1.23;;;;;;;21.66;34.12;98579.75;5134086;27;20051;-66
2022/05/26 07:20:56;;;;;;;3.00;1.52;;;;;;;21.67;33.78;98583.28;5134314;27;20027;-65
2022/05/26 07:23:22;;;;;;;2.78;1.60;;;;;;;21.67;33.81;98576.03;5135507;27;20092;-65
2022/05/26 07:25:48;;;;;;;2.50;1.20;;;;;;;21.69;33.73;98579.31;5146761;27;20043;-65
2022/05/26 07:28:13;;;;;;;1.80;1.33;;;;;;;21.67;33.49;98567.94;5134057;27;20122;-65
2022/05/26 07:30:42;;;;;;;2.08;1.23;;;;;;;21.68;33.30;98563.41;5134188;27;20034;-65
2022/05/26 07:33:08;;;;;;;2.55;1.67;;;;;;;21.69;33.47;98563.16;5134318;27;20043;-66
2022/05/26 07:35:34;;;;;;;2.28;1.60;;;;;;;21.70;33.33;98563.97;5153090;27;20031;-65
2022/05/26 07:43:31;;;;;;;6.50;1.58;;;;;;;21.67;33.46;98561.75;5154199;27;20075;-65
2022/05/26 07:45:57;;;;;;;3.40;1.52;;;;;;;21.65;33.42;98548.50;5154347;27;20034;-66
2022/05/26 07:48:22;;;;;;;4.75;1.77;;;;;;;21.68;33.53;98547.25;5154024;27;20037;-66
2022/05/26 07:50:48;;;;;;;2.63;1.80;;;;;;;21.67;33.49;98542.91;5154643;27;20031;-64
2022/05/26 07:53:13;;;;;;;3.42;1.60;;;;;;;21.66;33.34;98535.88;5154557;27;20037;-64
2022/05/26 07:55:42;;;;;;;2.67;1.58;;;;;;;21.67;33.38;98548.28;5154252;27;20503;-64
2022/05/26 07:58:09;;;;;;;9.32;2.08;;;;;;;21.69;33.40;98540.81;5154593;27;20058;-64
2022/05/26 08:00:34;;;;;;;4.50;2.15;;;;;;;21.70;33.36;98547.81;5154608;27;20397;-64
2022/05/26 08:03:00;;;;;;;3.42;1.90;;;;;;;21.70;33.34;98534.38;5154212;27;20038;-65
2022/05/26 08:05:26;;;;;;;2.85;1.55;;;;;;;21.69;33.39;98530.06;5151662;27;20034;-64
2022/05/26 08:07:51;;;;;;;5.68;1.88;;;;;;;21.69;33.22;98530.88;5154258;27;20038;-64
2022/05/26 08:10:17;;;;;;;5.60;1.95;;;;;;;21.69;33.24;98527.38;5153926;27;20450;-64
2022/05/26 08:12:42;;;;;;;3.13;1.70;;;;;;;21.68;33.29;98520.31;5154172;27;20026;-64
2022/05/26 08:15:10;;;;;;;2.42;1.63;;;;;;;21.68;33.40;98523.03;5153917;27;20034;-65
2022/05/26 08:17:36;;;;;;;4.90;1.67;;;;;;;21.69;33.29;98521.97;5154046;27;20130;-64
2022/05/26 08:20:03;;;;;;;5.20;1.80;;;;;;;21.70;33.30;98520.91;5153630;27;20065;-65
2022/05/26 08:22:28;;;;;;;4.47;2.20;;;;;;;21.70;33.35;98527.13;5154425;27;20038;-64
2022/05/26 08:24:56;;;;;;;2.38;1.63;;;;;;;21.74;33.54;98511.34;5153795;27;20026;-65
2022/05/26 08:27:22;;;;;;;4.43;1.80;;;;;;;21.74;33.48;98511.34;5154155;27;20075;-64
2022/05/26 08:29:48;;;;;;;4.55;1.75;;;;;;;21.75;33.43;98507.63;5154098;27;20441;-65
2022/05/26 08:32:18;;;;;;;2.78;1.77;;;;;;;21.77;33.27;98503.66;5153492;27;20037;-64
2022/05/26 08:34:44;;;;;;;2.95;1.65;;;;;;;21.77;33.26;98490.19;5153265;27;20030;-66
2022/05/26 08:37:20;;;;;;;23.30;3.40;;;;;;;21.79;33.30;98498.06;5150382;27;20495;-65
2022/05/26 08:39:46;;;;;;;5.43;1.92;;;;;;;21.74;33.44;98495.22;5144513;27;20114;-64
2022/05/26 08:42:19;;;;;;;3.42;1.90;;;;;;;21.72;33.91;98491.91;5149145;27;20039;-66
2022/05/26 08:44:44;;;;;;;6.72;1.92;;;;;;;;;;5150157;27;20456;-65
2022/05/26 08:47:19;;;;;;;3.75;1.98;;;;;;;21.66;34.54;98487.41;5151167;27;20038;-64
2022/05/26 08:49:59;;;;;;;7.68;2.40;;;;;;;21.62;34.41;98484.31;5149875;27;20165;-65
2022/05/26 08:52:44;;;;;;;5.78;1.48;;;;;;;21.58;34.68;98486.59;5151428;27;20047;-64
2022/05/26 08:55:42;;;;;;;6.55;2.05;;;;;;;21.55;34.50;98487.03;5150655;27;20094;-64
2022/05/26 08:58:25;;;;;;;3.10;1.55;;;;;;;21.54;34.60;98477.31;5135443;27;20045;-65
2022/05/26 09:00:52;;;;;;;12.07;1.80;;;;;;;21.55;34.09;98478.13;5140110;27;20541;-65
2022/05/26 09:03:23;;;;;;;6.82;1.88;;;;;;;21.57;34.21;98478.75;5148569;27;20034;-66
2022/05/26 09:05:54;;;;;;;5.00;1.40;;;;;;;21.55;33.99;98470.88;5145245;27;20393;-67
2022/05/26 09:13:54;;;;;;;6.63;1.98;;;;;;;21.57;34.35;98462.59;5145943;27;20038;-68
2022/05/26 09:16:21;;;;;;;3.63;1.63;;;;;;;21.57;34.36;98447.25;5146839;27;20544;-66
2022/05/26 09:19:16;;;;;;;5.63;1.70;;;;;;;21.59;34.59;98449.75;5150535;27;20129;-65
2022/05/26 09:21:43;;;;;;;9.32;1.65;;;;;;;21.55;34.75;98446.66;5149193;27;20127;-66
2022/05/26 09:24:29;;;;;;;5.50;1.77;;;;;;;21.58;34.70;98448.09;5150792;27;20477;-66
2022/05/26 09:27:23;;;;;;;3.67;1.45;;;;;;;21.57;34.72;98444.56;5150475;27;20046;-65
2022/05/26 09:29:49;;;;;;;8.63;1.80;;;;;;;21.53;34.45;98446.06;5142518;27;20031;-66
2022/05/26 09:32:19;;;;;;;6.65;1.77;;;;;;;21.53;34.39;98437.16;5156191;27;20118;-66
2022/05/26 09:35:06;;;;;;;6.22;1.70;;;;;;;21.53;34.18;98443.38;5156722;27;20117;-66
2022/05/26 09:37:41;;;;;;;6.45;1.70;;;;;;;21.49;34.28;98426.03;5156411;27;20555;-66
2022/05/26 09:40:36;;;;;;;3.50;1.60;;;;;;;21.48;34.21;98427.88;5156796;27;20549;-66
2022/05/26 09:43:05;;;;;;;3.40;1.50;;;;;;;21.46;34.28;98429.97;5157136;27;20409;-66
2022/05/26 09:45:41;;;;;;;2.10;1.30;;;;;;;21.48;34.08;98418.97;5156665;27;20034;-65
2022/05/26 09:48:27;;;;;;;3.60;1.27;;;;;;;21.47;33.95;98420.03;5137805;27;20075;-66
2022/05/26 09:51:24;;;;;;;5.95;1.77;;;;;;;21.46;33.83;98413.00;5156980;27;20046;-66
2022/05/26 09:53:52;;;;;;;4.45;1.95;;;;;;;21.45;33.89;98409.50;5150272;27;20023;-65
2022/05/26 09:56:39;;;;;;;5.10;1.45;;;;;;;21.45;33.39;98412.19;5156023;27;20500;-66
2022/05/26 09:59:32;;;;;;;4.30;1.50;;;;;;;21.45;33.33;98408.66;5155055;27;20487;-66
2022/05/26 10:02:09;;;;;;;3.47;1.40;;;;;;;21.44;33.37;98413.22;5143347;27;20070;-66
2022/05/26 10:05:19;;;;;;;6.80;1.58;;;;;;;21.46;33.04;98410.31;5151851;27;20042;-66
2022/05/26 10:08:21;;;;;;;6.78;1.40;;;;;;;21.44;32.98;98407.84;5144614;27;20069;-66
2022/05/26 10:11:04;;;;;;;3.22;1.50;;;;;;;21.44;33.10;98401.63;5139381;27;20125;-66
2022/05/26 10:13:57;;;;;;;4.55;1.50;;;;;;;21.45;33.26;98400.56;5147554;27;20041;-66
2022/05/26 10:16:48;;;;;;;5.93;1.63;;;;;;;21.45;33.14;98379.06;5138042;27;20540;-65
2022/05/26 10:19:26;;;;;;;;;;;;;;;21.38;33.40;98387.19;5135783;27;20046;-66
2022/05/26 10:22:30;;;;;;;4.95;1.85;;;;;;;21.43;33.44;98381.13;5135106;27;19927;-65
2022/05/26 10:25:09;;;;;;;6.63;2.67;;;;;;;21.44;33.50;98380.94;5141561;27;20484;-65
2022/05/26 10:27:40;;;;;;;8.88;3.78;;;;;;;21.46;33.82;98378.00;5135474;27;20027;-65
2022/05/26 10:30:24;;;;;;;13.30;4.25;;;;;;;21.47;33.87;98376.97;5135518;27;20482;-66
2022/05/26 10:33:20;;;;;;;12.30;5.18;;;;;;;21.48;34.03;98373.25;5135239;27;20083;-66
2022/05/26 10:36:03;;;;;;;15.65;6.75;;;;;;;21.48;34.24;98368.66;5135457;27;20038;-66
2022/05/26 10:38:59;;;;;;;27.67;7.20;;;;;;;21.49;34.29;98367.63;5135142;27;20074;-66
2022/05/26 10:41:47;;;;;;;17.35;5.35;;;;;;;21.49;34.17;98370.31;5146821;27;20019;-66
2022/05/26 10:44:26;;;;;;;21.75;6.45;;;;;;;21.51;34.40;98362.03;5155206;27;20549;-66
2022/05/26 10:47:21;;;;;;;18.02;6.35;;;;;;;21.50;34.34;98355.81;5143955;27;20047;-66
2022/05/26 10:50:02;;;;;;;19.67;6.95;;;;;;;21.50;34.45;98353.13;5149256;27;20457;-68
2022/05/26 10:52:45;;;;;;;16.05;6.40;;;;;;;21.53;34.84;98353.72;5155275;27;20038;-66
2022/05/26 10:55:21;;;;;;;13.13;6.00;;;;;;;21.53;34.87;98343.81;5151725;27;20031;-66
2022/05/26 10:57:46;;;;;;;20.60;6.53;;;;;;;21.54;34.89;98339.22;5134872;27;20042;-67
2022/05/26 11:00:16;;;;;;;15.32;4.97;;;;;;;21.55;35.00;98339.00;5139363;27;20034;-67
2022/05/26 11:03:09;;;;;;;22.13;5.10;;;;;;;21.58;35.33;98330.47;5151387;27;20094;-67
2022/05/26 11:05:43;;;;;;;29.35;5.25;;;;;;;21.60;35.43;98325.75;5147331;27;20031;-68
2022/05/26 11:08:50;;;;;;;12.30;4.78;;;;;;;21.61;35.26;98323.88;5153630;27;20185;-67
2022/05/26 11:11:31;;;;;;;12.75;4.43;;;;;;;21.61;35.42;98322.00;5078013;28;20024;-65
2022/05/26 11:17:21;;;;;;;12.35;4.03;;;;;;;21.61;35.32;98315.81;5145979;27;20041;-67
2022/05/26 11:19:50;;;;;;;9.18;3.20;;;;;;;21.60;35.25;98309.59;5155204;27;20511;-68
2022/05/26 11:22:16;;;;;;;9.18;3.35;;;;;;;21.59;35.40;98315.97;5153493;27;20109;-68
2022/05/26 11:24:50;;;;;;;19.17;3.33;;;;;;;21.61;35.17;98313.13;5154834;27;20039;-67
2022/05/26 11:27:24;;;;;;;7.82;2.72;;;;;;;21.58;35.14;98306.25;5155189;27;20385;-68
2022/05/26 11:29:57;;;;;;;8.85;3.15;;;;;;;21.59;34.78;98312.47;5154820;27;20022;-68
2022/05/26 11:38:19;;;;;;;4.65;2.70;;;;;;;21.53;34.79;98295.38;5154539;27;20044;-68
2022/05/26 11:41:04;;;;;;;7.22;2.53;;;;;;;21.53;34.74;98295.38;5154622;27;20396;-68
2022/05/26 11:44:17;;;;;;;7.85;2.92;;;;;;;21.50;34.67;98290.41;5154248;27;20126;-67
2022/05/26 11:46:43;;;;;;;5.47;3.00;;;;;;;21.50;34.47;98285.03;5139697;27;20081;-67
2022/05/26 11:49:11;;;;;;;7.53;2.45;;;;;;;21.51;34.37;98281.31;5153639;27;20181;-68
2022/05/26 11:51:42;;;;;;;6.10;2.42;;;;;;;21.51;34.34;98273.22;5154304;27;20086;-68
2022/05/26 11:54:30;;;;;;;5.40;2.15;;;;;;;21.54;34.24;98277.34;5153742;27;20042;-68
2022/05/26 11:56:56;;;;;;;5.90;2.28;;;;;;;21.52;34.40;98266.81;5154625;27;20066;-68
2022/05/26 11:59:32;;;;;;;6.57;2.50;;;;;;;21.53;34.19;98262.22;5154362;27;20069;-68
2022/05/26 12:02:00;;;;;;;6.28;2.60;;;;;;;21.53;34.12;98268.44;5153970;27;20061;-69
2022/05/26 12:04:38;;;;;;;6.53;2.30;;;;;;;21.54;34.19;98259.34;5142520;27;20045;-68
2022/05/26 12:07:17;;;;;;;4.85;1.83;;;;;;;21.53;34.03;98249.63;5133539;27;20031;-68
2022/05/26 12:09:42;;;;;;;4.43;2.30;;;;;;;21.54;33.96;98243.19;5147650;27;20596;-65
2022/05/26 12:12:17;;;;;;;6.07;2.65;;;;;;;21.56;33.84;98242.94;5153968;27;20035;-68
2022/05/26 12:14:45;;;;;;;6.93;2.10;;;;;;;21.56;33.70;98242.94;5153288;27;20490;-65
2022/05/26 12:17:38;;;;;;;4.10;1.80;;;;;;;21.58;33.75;98238.97;5153445;27;20134;-67
2022/05/26 12:20:10;;;;;;;4.10;1.90;;;;;;;21.57;33.77;98231.94;5153672;27;20615;-67
2022/05/26 12:23:00;;;;;;;4.50;2.20;;;;;;;21.59;33.77;98224.47;5153699;27;20038;-67
2022/05/26 12:25:29;;;;;;;4.05;2.20;;;;;;;21.58;33.98;98214.75;5152647;27;20026;-67
2022/05/26 12:28:10;;;;;;;7.22;2.20;;;;;;;21.58;33.84;98209.38;5154505;27;20441;-67
2022/05/26 12:30:44;;;;;;;7.28;2.00;;;;;;;21.58;33.77;98212.06;5134854;27;20046;-67
2022/05/26 12:33:22;;;;;;;5.20;2.05;;;;;;;21.58;33.59;98213.94;5133132;28;20118;-66
2022/05/26 12:36:13;;;;;;;5.47;1.90;;;;;;;21.58;33.53;98198.59;5133311;28;20091;-66
2022/05/26 12:38:49;;;;;;;5.47;1.67;;;;;;;21.58;33.51;98197.78;5133360;28;20031;-67
2022/05/26 12:41:20;;;;;;;6.18;1.75;;;;;;;21.57;33.45;98191.56;5136026;27;20070;-67
2022/05/26 12:43:49;;;;;;;6.38;1.83;;;;;;;21.59;33.44;98180.59;5153028;27;20036;-66